createdAt,value
2018-04-22T00:00:24.798Z,100232.55
2018-04-22T00:03:26.993Z,100228.87
2018-04-22T00:06:28.494Z,100229.78
2018-04-22T00:09:29.972Z,100229.61
2018-04-22T00:12:31.462Z,100221.82
2018-04-22T00:15:32.932Z,100214.63
2018-04-22T00:18:34.422Z,100210.37
2018-04-22T00:21:36.599Z,100205.47
2018-04-22T00:24:38.057Z,100212.95
2018-04-22T00:27:39.543Z,100203.75
2018-04-22T00:30:41.772Z,100191.93
2018-04-22T00:33:43.258Z,100183.84
2018-04-22T00:36:44.734Z,100181.25
2018-04-22T00:39:46.200Z,100169.80
2018-04-22T00:42:47.685Z,100172.94
2018-04-22T00:45:49.170Z,100174.89
2018-04-22T00:48:51.409Z,100188.07
2018-04-22T00:51:52.943Z,100160.70
2018-04-22T00:54:54.435Z,100161.56
2018-04-22T00:57:55.859Z,100152.23
2018-04-22T01:00:58.082Z,100158.69
2018-04-22T01:03:59.883Z,100139.23
2018-04-22T01:07:01.345Z,100139.31
2018-04-22T01:10:02.851Z,100135.13
2018-04-22T01:13:04.304Z,100130.39
2018-04-22T01:16:05.820Z,100127.30
2018-04-22T01:19:07.279Z,100119.14
2018-04-22T01:22:09.463Z,100108.92
2018-04-22T01:25:11.648Z,100121.78
2018-04-22T01:28:13.851Z,100119.29
2018-04-22T01:31:15.272Z,100110.73
2018-04-22T01:34:16.798Z,100110.78
2018-04-22T01:37:18.292Z,100106.91
2018-04-22T01:40:19.763Z,100115.37
2018-04-22T01:43:21.198Z,100109.88
2018-04-22T01:46:22.681Z,100111.08
2018-04-22T01:49:24.120Z,100110.33
2018-04-22T01:52:25.618Z,100107.59
2018-04-22T01:55:27.132Z,100097.34
2018-04-22T01:58:29.392Z,100096.16
2018-04-22T02:01:30.812Z,100095.69
2018-04-22T02:04:33.002Z,100097.08
2018-04-22T02:07:34.427Z,100100.67
2018-04-22T02:10:36.149Z,100091.08
2018-04-22T02:13:38.438Z,100101.96
2018-04-22T02:16:41.246Z,100089.02
2018-04-22T02:19:59.606Z,100079.62
2018-04-22T02:23:01.075Z,100076.97
2018-04-22T02:26:02.897Z,100071.56
2018-04-22T02:29:04.368Z,100077.85
2018-04-22T02:32:05.791Z,100074.72
2018-04-22T02:35:07.224Z,100073.91
2018-04-22T02:38:09.402Z,100073.77
2018-04-22T02:41:11.619Z,100065.86
2018-04-22T02:44:13.047Z,100062.95
2018-04-22T02:47:14.534Z,100065.27
2018-04-22T02:50:16.748Z,100057.25
2018-04-22T02:53:18.196Z,100054.70
2018-04-22T02:56:19.589Z,100049.89
2018-04-22T02:59:21.031Z,100043.23
2018-04-22T03:02:22.474Z,100044.77
2018-04-22T03:05:24.108Z,100043.25
2018-04-22T03:08:25.543Z,100038.62
2018-04-22T03:11:28.020Z,100034.42
2018-04-22T03:14:29.450Z,100025.56
2018-04-22T03:17:32.262Z,100016.84
2018-04-22T03:20:33.820Z,100012.32
2018-04-22T03:23:36.747Z,100009.42
2018-04-22T03:26:38.256Z,99998.17
2018-04-22T03:29:39.687Z,100004.82
2018-04-22T03:32:41.933Z,100004.22
2018-04-22T03:35:43.351Z,100008.03
2018-04-22T03:38:45.516Z,100004.80
2018-04-22T03:41:47.003Z,99999.31
2018-04-22T03:44:48.432Z,99992.63
2018-04-22T03:47:49.908Z,99990.23
2018-04-22T03:50:51.393Z,99993.27
2018-04-22T03:53:52.807Z,99986.61
2018-04-22T03:56:54.234Z,99984.88
2018-04-22T03:59:56.505Z,99983.41
2018-04-22T04:02:58.854Z,99976.60
2018-04-22T04:06:00.299Z,99963.00
2018-04-22T04:09:01.745Z,99963.26
2018-04-22T04:12:03.923Z,99960.35
2018-04-22T04:15:06.058Z,99954.97
2018-04-22T04:22:34.478Z,99943.34
2018-04-22T04:25:52.085Z,99937.72
2018-04-22T04:28:53.559Z,99932.06
2018-04-22T04:31:55.000Z,99926.99
2018-04-22T04:34:56.469Z,99925.06
2018-04-22T04:37:57.922Z,99904.15
2018-04-22T04:40:59.376Z,99913.56
2018-04-22T04:44:00.861Z,99918.98
2018-04-22T04:47:02.352Z,99922.45
2018-04-22T04:50:03.806Z,99918.26
2018-04-22T04:53:05.222Z,99907.84
2018-04-22T04:56:07.399Z,99911.14
2018-04-22T04:59:09.547Z,99918.91
2018-04-22T05:02:11.776Z,99906.03
2018-04-22T05:05:13.936Z,99906.29
2018-04-22T05:08:15.383Z,99902.02
2018-04-22T05:11:16.868Z,99899.41
2018-04-22T05:14:18.282Z,99895.69
2018-04-22T05:17:19.760Z,99899.66
2018-04-22T05:20:21.214Z,99892.13
2018-04-22T05:23:22.632Z,99900.57
2018-04-22T05:26:25.489Z,99897.17
2018-04-22T05:29:27.458Z,99890.83
2018-04-22T05:32:29.383Z,99895.20
2018-04-22T05:35:30.849Z,99881.28
2018-04-22T05:38:33.644Z,99893.87
2018-04-22T05:41:35.956Z,99883.05
2018-04-22T05:44:37.363Z,99883.89
2018-04-22T05:47:38.991Z,99881.42
2018-04-22T05:50:41.199Z,99892.66
2018-04-22T05:53:44.060Z,99878.09
2018-04-22T05:56:46.716Z,99882.24
2018-04-22T05:59:48.231Z,99869.68
2018-04-22T06:02:50.410Z,99867.87
2018-04-22T06:05:52.296Z,99861.44
2018-04-22T06:08:53.730Z,99870.60
2018-04-22T06:11:55.175Z,99863.98
2018-04-22T06:14:57.043Z,99865.25
2018-04-22T06:17:59.247Z,99853.03
2018-04-22T06:21:00.846Z,99848.53
2018-04-22T06:24:03.078Z,99851.22
2018-04-22T06:27:04.523Z,99844.96
2018-04-22T06:30:06.035Z,99835.59
2018-04-22T06:33:08.226Z,99835.98
2018-04-22T06:36:09.776Z,99830.95
2018-04-22T06:39:32.131Z,99828.61
2018-04-22T06:42:35.827Z,99821.72
2018-04-22T06:49:26.312Z,99818.59
2018-04-22T06:52:28.539Z,99813.72
2018-04-22T06:55:29.989Z,99813.80
2018-04-22T06:58:31.489Z,99819.17
2018-04-22T07:01:32.983Z,99811.52
2018-04-22T07:04:34.676Z,99813.42
2018-04-22T07:07:36.100Z,99809.88
2018-04-22T07:10:37.561Z,99814.30
2018-04-22T07:13:39.052Z,99812.38
2018-04-22T07:16:40.477Z,99810.91
2018-04-22T07:19:41.875Z,99815.95
2018-04-22T07:22:43.440Z,99811.22
2018-04-22T07:25:44.924Z,99819.95
2018-04-22T07:28:46.451Z,99811.05
2018-04-22T07:31:47.991Z,99801.32
2018-04-22T07:34:50.231Z,99803.77
2018-04-22T07:37:52.630Z,99821.53
2018-04-22T07:40:54.246Z,99808.74
2018-04-22T07:43:55.818Z,99815.96
2018-04-22T07:46:57.352Z,99812.97
2018-04-22T07:49:58.802Z,99819.10
2018-04-22T07:53:00.383Z,99814.16
2018-04-22T07:56:02.021Z,99821.34
2018-04-22T07:59:05.665Z,99814.17
2018-04-22T08:02:09.184Z,99823.89
2018-04-22T08:05:12.355Z,99819.08
2018-04-22T08:08:14.203Z,99816.92
2018-04-22T08:11:15.772Z,99814.73
2018-04-22T08:14:17.306Z,99819.28
2018-04-22T08:17:18.790Z,99823.09
2018-04-22T08:20:27.055Z,99814.08
2018-04-22T08:23:33.615Z,99821.47
2018-04-22T08:26:35.114Z,99819.16
2018-04-22T08:29:36.684Z,99814.97
2018-04-22T08:32:40.380Z,99815.05
2018-04-22T08:35:41.988Z,99812.95
2018-04-22T08:38:47.723Z,99808.73
2018-04-22T08:41:49.207Z,99815.42
2018-04-22T08:44:50.691Z,99812.85
2018-04-22T08:47:52.900Z,99804.43
2018-04-22T08:50:54.561Z,99801.97
2018-04-22T08:53:56.042Z,99790.38
2018-04-22T08:56:57.553Z,99800.95
2018-04-22T08:59:59.179Z,99793.97
2018-04-22T09:03:00.876Z,99797.28
2018-04-22T09:06:02.424Z,99800.42
2018-04-22T09:09:06.519Z,99803.17
2018-04-22T09:12:08.881Z,99787.25
2018-04-22T09:15:10.469Z,99781.88
2018-04-22T09:18:11.944Z,99796.94
2018-04-22T09:21:13.476Z,99784.27
2018-04-22T09:24:15.056Z,99787.62
2018-04-22T09:27:16.547Z,99789.81
2018-04-22T09:30:18.067Z,99788.73
2018-04-22T09:33:19.663Z,99776.73
2018-04-22T09:36:21.243Z,99779.80
2018-04-22T09:39:22.743Z,99776.36
2018-04-22T09:42:24.339Z,99782.75
2018-04-22T09:45:25.989Z,99781.59
2018-04-22T09:48:28.338Z,99781.56
2018-04-22T09:51:30.754Z,99782.39
2018-04-22T09:54:32.261Z,99783.14
2018-04-22T09:57:33.934Z,99780.20
2018-04-22T10:00:35.555Z,99779.44
2018-04-22T10:03:37.071Z,99785.06
2018-04-22T10:06:38.737Z,99778.88
2018-04-22T10:09:40.261Z,99763.95
2018-04-22T10:12:41.725Z,99613.48
2018-04-22T10:15:44.066Z,99758.52
2018-04-22T10:18:45.680Z,99762.23
2018-04-22T10:21:50.006Z,99747.16
2018-04-22T10:24:55.117Z,99741.97
2018-04-22T10:27:57.356Z,99739.10
2018-04-22T10:30:58.961Z,99738.77
2018-04-22T10:37:18.834Z,99744.13
2018-04-22T10:40:23.777Z,99739.05
2018-04-22T10:43:25.533Z,99741.32
2018-04-22T10:49:36.805Z,99727.73
2018-04-22T10:52:38.367Z,99722.14
2018-04-22T10:55:39.869Z,99718.87
2018-04-22T10:58:43.998Z,99713.64
2018-04-22T11:01:46.586Z,99721.16
2018-04-22T11:05:05.269Z,99714.37
2018-04-22T11:08:08.890Z,99707.70
2018-04-22T11:11:12.511Z,99709.41
2018-04-22T11:14:16.576Z,99709.00
2018-04-22T11:17:28.207Z,99707.72
2018-04-22T11:20:29.894Z,99701.73
2018-04-22T11:23:32.359Z,99700.05
2018-04-22T11:26:33.943Z,99693.88
2018-04-22T11:29:36.628Z,99689.86
2018-04-22T11:32:38.821Z,99679.88
2018-04-22T11:35:44.210Z,99678.08
2018-04-22T11:38:48.044Z,99668.81
2018-04-22T11:41:56.510Z,99676.61
2018-04-22T11:44:58.764Z,99672.78
2018-04-22T11:48:00.309Z,99667.97
2018-04-22T11:51:01.892Z,99667.77
2018-04-22T11:54:03.434Z,99676.34
2018-04-22T11:57:05.005Z,99670.42
2018-04-22T12:00:06.728Z,99664.77
2018-04-22T12:03:09.037Z,99665.40
2018-04-22T12:09:19.882Z,99664.51
2018-04-22T12:12:21.907Z,99653.67
2018-04-22T12:15:23.813Z,99653.84
2018-04-22T12:18:26.295Z,99649.20
2018-04-22T12:21:28.764Z,99649.45
2018-04-22T12:24:32.262Z,99645.34
2018-04-22T12:27:35.554Z,99632.33
2018-04-22T12:30:38.825Z,99622.94
2018-04-22T12:33:40.371Z,99622.92
2018-04-22T12:36:42.235Z,99603.33
2018-04-22T12:39:45.709Z,99601.10
2018-04-22T12:42:48.076Z,99587.50
2018-04-22T12:45:53.313Z,99584.81
2018-04-22T12:48:56.198Z,99579.60
2018-04-22T12:51:58.411Z,99570.93
2018-04-22T12:55:02.983Z,99577.30
2018-04-22T12:58:04.922Z,99578.61
2018-04-22T13:01:11.000Z,99574.41
2018-04-22T13:04:14.021Z,99568.34
2018-04-22T13:07:17.207Z,99554.73
2018-04-22T13:10:26.902Z,99550.16
2018-04-22T13:13:29.843Z,99545.00
2018-04-22T13:16:32.335Z,99540.99
2018-04-22T13:20:01.827Z,99536.45
2018-04-22T13:23:06.101Z,99541.56
2018-04-22T13:26:13.698Z,99560.97
2018-04-22T13:29:17.417Z,99560.69
2018-04-22T13:32:27.883Z,99550.56
2018-04-22T13:35:37.282Z,99546.07
2018-04-22T13:38:52.736Z,99537.36
2018-04-22T13:41:59.351Z,99515.86
2018-04-22T13:45:05.631Z,99504.21
2018-04-22T13:48:16.674Z,99522.55
2018-04-22T13:51:26.705Z,99559.29
2018-04-22T15:05:58.990Z,99505.58
2018-04-22T15:09:10.803Z,99503.95
2018-04-22T15:12:18.072Z,99502.44
2018-04-22T15:15:27.132Z,99500.42
2018-04-22T15:18:45.922Z,99509.77
2018-04-22T15:27:37.930Z,99513.55
2018-04-22T15:30:45.406Z,99507.42
2018-04-22T15:33:47.106Z,99500.31
2018-04-22T15:36:49.813Z,99493.33
2018-04-22T15:39:53.198Z,99490.52
2018-04-22T15:42:54.932Z,99484.81
2018-04-22T15:45:58.600Z,99482.20
2018-04-22T15:49:17.616Z,99477.98
2018-04-22T15:55:32.738Z,99475.64
2018-04-22T15:58:43.078Z,99481.20
2018-04-22T16:01:48.369Z,99477.27
2018-04-22T16:04:51.724Z,99477.81
2018-04-22T16:07:55.103Z,99466.80
2018-04-22T16:11:00.109Z,99469.23
2018-04-22T16:14:05.715Z,99474.70
2018-04-22T16:20:21.407Z,99476.13
2018-04-22T16:23:30.037Z,99465.81
2018-04-22T16:26:39.240Z,99468.23
2018-04-22T16:29:43.567Z,99467.16
2018-04-22T16:32:47.868Z,99459.63
2018-04-22T16:35:50.502Z,99468.59
2018-04-22T16:38:57.840Z,99455.30
2018-04-22T16:42:00.225Z,99441.65
2018-04-22T16:45:04.769Z,99430.95
2018-04-22T16:48:07.403Z,99422.25
2018-04-22T16:51:14.552Z,99405.18
2018-04-22T16:54:59.840Z,99407.79
2018-04-22T16:58:06.272Z,99411.63
2018-04-22T17:01:10.939Z,99404.23
2018-04-22T17:04:14.658Z,99417.45
2018-04-22T17:07:20.281Z,99422.77
2018-04-22T17:10:24.255Z,99419.88
2018-04-22T17:13:27.166Z,99430.92
2018-04-22T17:41:39.234Z,99414.68
2018-04-22T17:44:45.525Z,99413.09
2018-04-22T17:47:48.851Z,99405.14
2018-04-22T17:50:52.027Z,99406.37
2018-04-22T17:53:59.103Z,99406.22
2018-04-22T17:57:06.982Z,99411.69
2018-04-22T18:00:11.521Z,99415.81
2018-04-22T18:03:13.747Z,99409.14
2018-04-22T18:06:17.639Z,99405.27
2018-04-22T18:09:31.541Z,99422.10
2018-04-22T18:12:47.311Z,99407.06
2018-04-22T18:15:57.700Z,99409.22
2018-04-22T18:19:01.301Z,99417.41
2018-04-22T18:22:03.853Z,99423.95
2018-04-22T18:25:08.337Z,99432.73
2018-04-22T18:28:11.830Z,99443.14
2018-04-22T18:31:13.663Z,99447.78
2018-04-22T18:38:21.074Z,99439.92
2018-04-22T18:41:24.456Z,99472.31
2018-04-22T18:44:26.617Z,99470.45
2018-04-22T18:47:45.414Z,99485.77
2018-04-22T18:50:47.814Z,99493.05
2018-04-22T18:53:51.665Z,99495.46
2018-04-22T18:56:53.377Z,99499.91
2018-04-22T18:59:54.929Z,99503.21
2018-04-22T19:02:56.719Z,99508.41
2018-04-22T19:06:06.337Z,99541.83
2018-04-22T19:09:07.951Z,99546.25
2018-04-22T19:12:10.672Z,99566.13
2018-04-22T19:15:15.918Z,99568.84
2018-04-22T19:18:29.173Z,99581.94
2018-04-22T19:21:36.274Z,99589.10
2018-04-22T19:24:47.429Z,99606.06
2018-04-22T19:31:02.290Z,99617.77
2018-04-22T19:34:04.683Z,99601.41
2018-04-22T19:37:12.973Z,99623.53
2018-04-22T19:40:21.991Z,99626.45
2018-04-22T19:43:46.854Z,99618.70
2018-04-22T19:50:04.903Z,99608.81
2018-04-22T19:53:20.596Z,99625.45
2018-04-22T19:56:22.626Z,99635.63
2018-04-22T19:59:25.351Z,99636.64
2018-04-22T20:02:27.199Z,99637.74
2018-04-22T20:05:32.630Z,99646.84
2018-04-22T20:08:34.399Z,99636.77
2018-04-22T20:11:36.087Z,99638.29
2018-04-22T20:14:37.852Z,99642.28
2018-04-22T20:17:48.727Z,99633.42
2018-04-22T20:20:52.563Z,99636.98
2018-04-22T20:23:57.549Z,99638.34
2018-04-22T20:26:59.984Z,99650.25
2018-04-22T20:30:03.735Z,99644.86
2018-04-22T20:33:05.298Z,99643.33
2018-04-22T20:39:21.829Z,99642.37
2018-04-22T20:42:26.147Z,99641.61
2018-04-22T20:45:29.816Z,99636.69
2018-04-22T20:48:48.703Z,99593.61
2018-04-22T20:51:53.452Z,99641.61
2018-04-22T20:55:04.705Z,99648.00
2018-04-22T20:58:06.419Z,99648.66
2018-04-22T21:01:08.124Z,99642.17
2018-04-22T21:04:09.792Z,99644.63
2018-04-22T21:07:11.458Z,99623.72
2018-04-22T21:10:13.028Z,99623.44
2018-04-22T21:13:14.601Z,99648.41
2018-04-22T21:19:26.553Z,99653.13
2018-04-22T21:22:29.844Z,99653.33
2018-04-22T21:25:31.533Z,99652.92
2018-04-22T21:28:33.726Z,99642.34
2018-04-22T21:31:36.643Z,99642.25
2018-04-22T21:34:38.869Z,99619.98
2018-04-22T21:37:40.335Z,99633.95
2018-04-22T21:40:41.875Z,99646.95
2018-04-22T21:43:43.415Z,99643.72
2018-04-22T21:46:44.968Z,99649.23
2018-04-22T21:49:47.620Z,99630.76
2018-04-22T21:52:49.395Z,99648.00
2018-04-22T21:55:51.705Z,99653.98
2018-04-22T21:58:53.237Z,99650.92
2018-04-22T22:01:55.585Z,99642.50
2018-04-22T22:04:57.140Z,99640.54
2018-04-22T22:07:58.633Z,99645.82
2018-04-22T22:11:00.844Z,99637.00
2018-04-22T22:14:02.416Z,99623.95
2018-04-22T22:17:03.990Z,99640.00
2018-04-22T22:20:06.458Z,99638.29
2018-04-22T22:23:07.972Z,99633.53
2018-04-22T22:26:10.203Z,99645.97
2018-04-22T22:29:11.744Z,99631.18
2018-04-22T22:32:13.266Z,99631.59
2018-04-22T22:35:14.841Z,99626.16
2018-04-22T22:38:16.495Z,99622.48
2018-04-22T22:41:18.122Z,99627.25
2018-04-22T22:44:19.696Z,99618.91
2018-04-22T22:47:21.911Z,99618.69
2018-04-22T22:50:23.452Z,99589.70
2018-04-22T22:53:25.049Z,99595.52
2018-04-22T22:56:28.058Z,99602.69
2018-04-22T22:59:30.399Z,99601.58
2018-04-22T23:02:31.902Z,99589.41
2018-04-22T23:05:33.432Z,99589.56
2018-04-22T23:08:36.116Z,99594.44
2018-04-22T23:11:38.421Z,99594.61
2018-04-22T23:14:39.939Z,99586.88
2018-04-22T23:17:41.518Z,99593.64
2018-04-22T23:20:42.979Z,99618.00
2018-04-22T23:23:44.548Z,99599.30
2018-04-22T23:26:46.084Z,99602.27
2018-04-22T23:29:47.620Z,99597.64
2018-04-22T23:32:49.914Z,99606.91
2018-04-22T23:35:52.091Z,99601.62
2018-04-22T23:38:53.627Z,99587.63
2018-04-22T23:41:55.937Z,99600.66
2018-04-22T23:44:57.550Z,99602.01
2018-04-22T23:47:59.357Z,99595.58
2018-04-22T23:51:00.987Z,99585.38
2018-04-22T23:54:02.585Z,99601.41
2018-04-22T23:57:04.305Z,99599.52
